Aviation Digital Data Service (ADDS)

Output produced by METARs form (1703 UTC 20 January 2019)
found at http://www.aviationweather.gov/metar/data/
 
KSAC 201400Z 2014/2112 17005KT P6SM -RA SCT021 BKN028 OVC035 
     FM201900 17010KT 6SM -RA BR OVC025 
     TEMPO 2019/2023 4SM -TSRA OVC007CB 
     FM210400 21018G30KT P6SM OVC025 
     FM210700 25010KT P6SM SCT025 BKN050
       
KSAF 201526Z 2015/2112 36010KT P6SM BKN250 
     FM202000 28008KT P6SM SCT250 
     FM210100 35005KT P6SM SCT250
       
KSAN 201501Z 2015/2118 VRB03KT P6SM SCT250 
     FM202000 30008KT P6SM SCT250 
     FM210000 29005KT P6SM SCT250 
     FM210500 29005KT P6SM BKN015 
     FM210900 28009KT P6SM VCSH BKN020 
     FM211500 28010G24KT P6SM BKN025
       
KSAT 201446Z 2015/2118 04006KT P6SM SKC 
     FM202000 15005KT P6SM SKC
       
KSAV 201517Z 2015/2112 28016G30KT P6SM SCT020 OVC035 
     TEMPO 2015/2017 BKN020 
     FM201700 28016G26KT P6SM BKN035 
     FM210100 30012KT P6SM SKC 
     FM210900 32006KT P6SM SKC
       
KSBA 201140Z 2012/2112 VRB03KT P6SM BKN200 
     FM202000 26008KT P6SM BKN200 
     FM210200 28012G18KT P6SM BKN015 BKN100 
     FM210500 29015G20KT P6SM VCSH BKN015 BKN080
       
KSBD 201137Z 2012/2112 VRB05KT P6SM BKN250 
     FM210800 26008KT P6SM BKN015
       
KSBN 201120Z 2012/2112 01012KT P6SM FEW050 
     FM201600 35010KT P6SM VCSH BKN035 
     TEMPO 2018/2021 3SM -SN BKN025 
     FM210300 06005KT P6SM FEW100
       
KSBP 201451Z 2015/2112 VRB03KT P6SM BKN006 
     FM201700 VRB03KT P6SM BKN035 BKN200 
     FM202100 29010KT P6SM BKN025 
     FM210300 31012G18KT 5SM BR VCSH OVC015 
     FM210900 31014G22KT P6SM SCT020 BKN150
       
KSBY 201423Z 2014/2112 23014G22KT P6SM SCT025 BKN035 
     FM201600 29016G24KT P6SM SCT025 BKN035 
     FM201700 32022G32KT P6SM BKN035 
     FM210300 31018G28KT P6SM SCT050
       
KSCK 201120Z 2012/2112 13006KT P6SM OVC050 
     FM201700 17010KT 6SM -SHRA BR OVC050 
     FM202300 15015KT 5SM -SHRA BR OVC030 
     FM210200 26019G32KT P6SM VCSH OVC050 
     FM210900 30012KT P6SM OVC050
       
KSDF 201120Z 2012/2118 34015G25KT P6SM SCT020 
     FM201500 34014KT P6SM FEW030 SCT250 
     FM210000 34008KT P6SM FEW030 BKN120 
     FM210400 35005KT P6SM SCT200
       
KSDL 201120Z 2012/2112 VRB03KT P6SM SCT250
       
KSDY 201121Z 2012/2112 VRB05KT P6SM BKN015 
     FM201400 VRB06KT P6SM SCT020 BKN060 
     FM210400 11008KT P6SM VCSH BKN025 
     FM210700 11009KT 2SM -SN BKN008
       
KSEA 201414Z 2014/2118 01010KT P6SM OVC150 
     FM202000 01006KT P6SM BKN100 OVC150 
     FM210000 01006KT P6SM SCT100 BKN200 
     FM211200 01006KT P6SM BKN011
       
KSEZ 201127Z 2012/2112 04010G16KT P6SM SCT250 
     FM201600 VRB05KT P6SM SCT250 
     FM202100 17008KT P6SM BKN250
       
KSFB 201227Z 2012/2112 27012G21KT P6SM SCT020 BKN040 
     TEMPO 2012/2014 BKN020 
     FM201500 27020G29KT P6SM SCT035 SCT200 
     FM202300 29011KT P6SM SKC 
     FM210700 32007KT P6SM SKC
       
KSFF 201445Z 2015/2112 00000KT 1SM BR OVC003 
     FM201630 05003KT 4SM BR BKN005 OVC015 
     FM201800 03004KT 5SM -RASN BR OVC009 
     FM210100 35004KT 5SM BR BKN008 OVC015 
     FM210500 00000KT 2SM BR BCFG OVC004
       
KSFO 201437Z 2015/2118 20006KT P6SM -RA SCT015 OVC025 
     TEMPO 2016/2020 5SM -RA BR FEW010 BKN015 
     FM202000 27015G25KT 6SM -SHRA BR SCT015 OVC020 
     FM210400 27025G35KT 5SM -SHRA BR OVC015 
     FM211000 27015G22KT 5SM -SHRA BR OVC012 
     FM211200 27014KT P6SM SCT050 BKN200
       
KSGF 201120Z 2012/2112 34007KT P6SM FEW250 
     FM202300 10008KT P6SM SCT250
       
KSGJ 201601Z 2016/2112 28014G25KT P6SM BKN025 BKN050 
     FM201800 29020G34KT P6SM SCT030 
     FM202200 29014G24KT P6SM SKC 
     FM210000 29008KT P6SM SKC 
     FM210800 30005KT P6SM SKC
       
KSGU 201137Z 2012/2112 VRB04KT P6SM BKN200 
     FM210400 22010G17KT P6SM SCT120 BKN200
       
KSHR 201211Z 2012/2112 VRB05KT P6SM VCSH FEW015 SCT025 OVC045 
     TEMPO 2012/2014 -SHRASN BKN015 
     FM201900 14007KT P6SM BKN100 
     FM210400 VRB04KT P6SM SCT100
       
KSHV 201140Z 2012/2112 34008KT P6SM SCT025 
     FM201400 33006KT P6SM FEW250 
     FM210000 VRB03KT P6SM SKC
       
KSJC 201133Z 2012/2112 14005KT P6SM SCT030 BKN050 
     FM201400 14008KT P6SM VCSH BKN025 OVC050 
     FM201900 25015G19KT P6SM -SHRA OVC025 
     FM210300 25012KT 5SM SHRA OVC020 
     FM210900 26008KT P6SM VCSH BKN100
       
KSJT 201120Z 2012/2112 15004KT P6SM SKC 
     FM201700 20011G17KT P6SM SKC
       
TAF AMD KSKA 201701Z 2017/2117 04003KT 9999 BKN003 OVC012 QNH2980INS 
     BECMG 2018/2019 36009KT 6000 -SN OVC010 620109 QNH2970INS 
     BECMG 2106/2107 24004KT 9999 NSW FEW020 BKN150 QNH2971INS TX01/2017Z
TNM02/2111Z
       
TAF KSKF 201000Z 2010/2116 VRB06KT 9999 FEW250 QNH3017INS TX14/2020Z TN03/2011Z
       
KSLC 201515Z 2015/2118 16010KT P6SM OVC200 
     FM210800 17012KT P6SM SCT010 BKN040 
     FM211200 29007KT 3SM -RASN BR SCT010 BKN025 
     FM211700 33010KT 2SM -SN BR SCT010 BKN020
       
KSLE 201636Z 2017/2112 33007KT 6SM -RA BR FEW008 SCT020 OVC030 
     FM202200 VRB04KT P6SM -RA BKN015 OVC035 
     FM210600 VRB02KT 3SM BR OVC005
       
TAF KSLI 201300Z 2013/2119 VRB06KT 9999 SKC QNH3000INS 
     BECMG 2021/2022 24009KT 9999 SCT180 QNH3000INS 
     BECMG 2106/2107 25010G15KT 9999 BKN010 OVC020 510308 QNH3001INS 
     BECMG 2111/2112 30012G18KT 9999 SCT240 520306 QNH3002INS TX17/2021Z
TN10/2014Z
       
KSLK 201334Z 2014/2112 07010G18KT 1/2SM SN FZFG VV009 
     FM201800 01008KT 1 1/2SM -SN BR OVC007 
     FM202100 35009KT 2SM -SHSN BR OVC007 
     FM202300 34009G17KT 2SM -SHSN BR OVC010 
     FM210500 32011G19KT 2SM -SHSN BR OVC015
       
KSLN 201128Z 2012/2112 17008KT P6SM FEW250 
     FM201700 20010KT P6SM FEW250 
     FM202000 VRB05KT P6SM SCT200 
     FM210000 04010KT P6SM SCT200 
     FM210500 09012KT P6SM SCT200
       
KSME 201603Z 2016/2112 35010G17KT P6SM VCSH OVC020 
     FM201800 33011G20KT P6SM OVC050 
     FM202000 33011G15KT P6SM BKN130 
     FM210200 35008KT P6SM BKN090
       
KSMF 201120Z 2012/2112 17007KT P6SM OVC050 
     FM201900 17013KT 6SM -RA BR OVC025 
     TEMPO 2019/2023 4SM -TSRA OVC007CB 
     FM210400 21018G28KT P6SM OVC025 
     FM210700 23010KT P6SM SCT025 BKN050
       
KSMN 201120Z 2012/2112 VRB03KT 5SM -SN BKN008 OVC030 
     FM201400 VRB04KT 4SM -SN BKN025 OVC035 
     FM202000 24005KT P6SM VCSH SCT010 OVC050 
     FM210300 22009G18KT 6SM -SHSN BKN025 
     FM210900 19008KT P6SM VCSH OVC050
       
KSMO 201140Z 2012/2112 VRB03KT P6SM BKN200 
     FM202000 23007KT P6SM BKN200 
     FM210400 VRB03KT P6SM OVC025
       
KSMX 201140Z 2012/2112 VRB03KT P6SM OVC200 
     FM201800 VRB03KT P6SM BKN040 BKN200 
     FM202100 29010KT P6SM BKN030 
     FM210400 31012G18KT 5SM BR VCSH OVC015 
     FM211000 31014G22KT P6SM SCT020 BKN150
       
KSNA 201137Z 2012/2112 VRB04KT P6SM BKN200 
     FM202200 29008KT P6SM SCT015 
     FM210400 28005KT P6SM BKN015 
     FM210800 28012KT P6SM BKN020
       
KSNS 201133Z 2012/2112 19006KT P6SM FEW030 BKN050 
     FM201500 12007KT 5SM BR BKN025 OVC050 
     FM201800 26010KT 5SM -SHRA OVC025 
     FM210400 26012KT 5SM -SHRA OVC020 
     FM210900 27005KT P6SM VCSH BKN020 OVC100
       
KSNY 201122Z 2012/2112 28010KT P6SM SCT090 
     FM201700 VRB05KT P6SM SCT050 BKN100 
     FM210200 17014KT P6SM SCT120
       
KSPS 201128Z 2012/2112 23005KT P6SM SCT250 
     FM202000 18010KT P6SM BKN250 
     FM210200 15011KT P6SM BKN250
       
KSRQ 201126Z 2012/2112 30018G28KT P6SM BKN035 OVC050 
     TEMPO 2012/2016 BKN025 
     FM202100 31018G27KT P6SM SCT025 SCT250 
     FM210000 33012KT P6SM SCT250 
     FM211000 02007KT P6SM SKC
       
TAF KSSC 201600Z 2016/2122 24015G25KT 9999 SCT025 BKN040 510015 QNH2953INS 
     TEMPO 2016/2019 28025G35KT 520005 
     BECMG 2018/2019 31015G25KT 9999 SCT040 510015 QNH2966INS 
     BECMG 2023/2024 33012KT 9999 SKC 510015 QNH2991INS 
     BECMG 2117/2118 35009KT 9999 SKC QNH3035INS TX11/2018Z TNM04/2111Z
       
KSSF 201124Z 2012/2112 04005KT P6SM SKC 
     FM202000 15005KT P6SM SKC
       
KSTC 201133Z 2012/2112 05004KT P6SM SCT120 
     FM201600 09006KT P6SM SCT150 
     FM211000 14009G15KT P6SM BKN150
       
KSTL 201520Z 2015/2118 33008KT P6SM BKN250 
     FM201800 35005KT P6SM VCSH OVC035 
     FM202000 34005KT 6SM -SN OVC025 
     TEMPO 2021/2023 4SM -SN 
     FM210100 01005KT P6SM OVC050 
     FM211700 13012KT P6SM BKN120
       
KSTS 201514Z 2015/2112 17007KT 5SM -RA BR BKN012 BKN030 
     TEMPO 2015/2018 3SM RA BR OVC007 
     FM201900 24010KT 4SM SHRA BR OVC010 
     FM210600 31010KT 3SM -SHRA BR OVC005 
     TEMPO 2108/2112 1SM -RA BR OVC004
       
KSUA 201146Z 2012/2112 22010G15KT P6SM -RA VCTS SCT025CB BKN040 OVC060 
     TEMPO 2012/2014 3SM RA BKN025 
     FM201500 27014G22KT P6SM BKN025 BKN100 
     FM201800 27018G26KT P6SM SCT030 SCT200 
     FM210000 28010G16KT P6SM SKC
       
KSUN 201333Z 2014/2118 31005KT P6SM VCSH SCT015 BKN035 
     FM202000 15006KT 2SM -SN BR SCT004 OVC006 
     FM210600 30003KT P6SM SCT008 OVC025 
     FM211300 32009KT P6SM BKN040
       
KSUS 201120Z 2012/2112 32012KT P6SM BKN250 
     FM202000 35005KT P6SM VCSH OVC035 
     FM210100 01005KT P6SM OVC050
       
TAF KSUU 201100Z 2011/2117 VRB06KT 9999 VCSH BKN020 OVC030 QNH3012INS 
     BECMG 2013/2014 21009KT 9000 -SHRA OVC020 QNH3010INS 
     BECMG 2015/2016 21012KT 4800 -SHRA BR BKN010 OVC020 QNH3000INS 
     TEMPO 2016/2021 BKN007 
     BECMG 2020/2021 22015G25KT 4800 -SHRA BR OVC020 QNH2999INS 
     TEMPO 2021/2023 3200 -SHRA BR BKN010 
     BECMG 2022/2023 24015G25KT 8000 -SHRA OVC020 610509 QNH3000INS 
     BECMG 2104/2105 25012KT 9999 NSW SCT020 QNH3004INS 
     BECMG 2112/2113 28009KT 9999 SCT050 QNH3013INS TX15/2023Z TN07/2111Z
       
KSUX 201124Z 2012/2112 11011KT P6SM VCSH SCT030 OVC040 
     FM201500 11011KT P6SM OVC030 
     FM210700 13012G19KT P6SM OVC040
       
KSWF 201430Z 2015/2118 09008KT 2SM -FZRA BR OVC004 
     FM201700 35010KT P6SM BKN007 OVC015 
     FM201900 33016G24KT P6SM SCT015 BKN025 
     FM202100 33022G30KT P6SM BKN040 
     FM202300 32024G35KT P6SM SCT250 
     FM210900 30022G35KT P6SM BKN050 AMD NOT SKED
       
KSYR 201144Z 2012/2112 34014G24KT 1/2SM SN BLSN OVC008 
     FM202000 32014G26KT 2SM -SN BLSN OVC014 
     FM210400 32011G20KT 2SM -SHSN BLSN BKN012
       
TAF KSZL 201100Z 2011/2117 35006KT 9999 SCT100 BKN250 QNH3025INS 
     BECMG 2017/2018 10009KT 9999 SCT040 OVC090 620904 QNH3022INS 
     BECMG 2111/2112 09009KT 9999 SCT090 QNH3018INS 
     BECMG 2114/2115 11015G20KT 9999 FEW100 SCT250 QNH3012INS TXM06/2100Z
TNM12/2011Z